createdAt,value
2023-12-08T00:01:14.495Z,14.55
2023-12-08T00:03:41.178Z,15.15
2023-12-08T00:06:10.952Z,14.88
2023-12-08T00:08:38.746Z,15.15
2023-12-08T00:11:06.269Z,15.43
2023-12-08T00:13:32.991Z,15.40
2023-12-08T00:15:59.396Z,14.60
2023-12-08T00:18:25.965Z,15.68
2023-12-08T00:20:52.545Z,14.88
2023-12-08T00:23:19.079Z,15.93
2023-12-08T00:25:45.547Z,15.82
2023-12-08T00:28:11.990Z,14.60
2023-12-08T00:30:38.393Z,14.68
2023-12-08T00:33:04.999Z,14.80
2023-12-08T00:35:32.018Z,14.05
2023-12-08T00:37:58.467Z,15.52
2023-12-08T00:40:24.821Z,14.80
2023-12-08T00:42:51.215Z,14.40
2023-12-08T00:45:17.725Z,15.27
2023-12-08T00:47:44.784Z,14.00
2023-12-08T00:50:11.372Z,15.32
2023-12-08T00:52:37.794Z,16.33
2023-12-08T00:55:04.541Z,15.38
2023-12-08T00:57:30.955Z,15.27
2023-12-08T00:59:58.694Z,15.43
2023-12-08T01:02:28.259Z,15.75
2023-12-08T01:04:54.710Z,17.15
2023-12-08T01:07:21.138Z,15.60
2023-12-08T01:09:52.889Z,15.60
2023-12-08T01:12:19.267Z,15.55
2023-12-08T01:14:45.655Z,15.30
2023-12-08T01:17:12.137Z,14.48
2023-12-08T01:19:38.532Z,14.85
2023-12-08T01:22:04.982Z,15.15
2023-12-08T01:24:31.442Z,14.50
2023-12-08T01:26:57.908Z,15.20
2023-12-08T01:29:24.316Z,14.88
2023-12-08T01:31:50.781Z,14.27
2023-12-08T01:34:17.753Z,15.30
2023-12-08T01:36:44.870Z,15.85
2023-12-08T01:39:12.161Z,15.65
2023-12-08T01:41:39.384Z,15.52
2023-12-08T01:44:05.954Z,14.75
2023-12-08T01:46:32.663Z,15.20
2023-12-08T01:48:59.674Z,15.27
2023-12-08T01:51:27.212Z,14.77
2023-12-08T01:53:53.810Z,15.15
2023-12-08T01:56:21.426Z,15.40
2023-12-08T01:58:48.207Z,16.13
2023-12-08T02:01:15.576Z,15.50
2023-12-08T02:03:42.840Z,15.32
2023-12-08T02:06:10.739Z,15.63
2023-12-08T02:08:37.346Z,13.75
2023-12-08T02:11:03.954Z,15.50
2023-12-08T02:13:30.531Z,16.85
2023-12-08T02:16:05.327Z,16.83
2023-12-08T02:18:34.756Z,15.88
2023-12-08T02:21:04.280Z,16.13
2023-12-08T02:23:30.819Z,15.27
2023-12-08T02:25:57.233Z,15.73
2023-12-08T02:28:23.836Z,15.63
2023-12-08T02:30:52.545Z,16.40
2023-12-08T02:33:29.386Z,15.43
2023-12-08T02:35:56.804Z,14.95
2023-12-08T02:38:25.567Z,13.80
2023-12-08T02:40:52.034Z,15.63
2023-12-08T02:43:18.505Z,15.02
2023-12-08T02:45:44.924Z,14.73
2023-12-08T02:48:11.369Z,15.40
2023-12-08T02:50:37.873Z,14.23
2023-12-08T02:53:04.531Z,14.82
2023-12-08T02:55:31.785Z,15.18
2023-12-08T02:57:58.174Z,14.52
2023-12-08T03:00:24.576Z,14.50
2023-12-08T03:02:51.137Z,14.35
2023-12-08T03:05:17.588Z,15.50
2023-12-08T03:07:44.113Z,15.85
2023-12-08T03:10:10.655Z,15.70
2023-12-08T03:12:37.093Z,15.80
2023-12-08T03:15:04.033Z,15.80
2023-12-08T03:17:30.941Z,14.63
2023-12-08T03:19:58.424Z,15.77
2023-12-08T03:22:24.989Z,15.63
2023-12-08T03:24:51.455Z,17.90
2023-12-08T03:27:18.032Z,16.92
2023-12-08T03:29:44.530Z,18.55
2023-12-08T03:32:10.908Z,18.05
2023-12-08T03:34:38.477Z,17.52
2023-12-08T03:37:05.237Z,18.45
2023-12-08T03:39:31.642Z,18.17
2023-12-08T03:41:58.209Z,17.60
2023-12-08T03:44:25.053Z,18.48
2023-12-08T03:46:51.548Z,17.65
2023-12-08T03:49:18.879Z,18.30
2023-12-08T03:51:45.388Z,18.48
2023-12-08T03:54:11.934Z,17.20
2023-12-08T03:56:38.377Z,18.17
2023-12-08T03:59:04.922Z,17.92
2023-12-08T04:01:31.530Z,18.48
2023-12-08T04:03:58.011Z,18.55
2023-12-08T04:06:24.556Z,20.10
2023-12-08T04:08:51.050Z,19.45
2023-12-08T04:11:17.439Z,19.98
2023-12-08T04:13:43.834Z,20.30
2023-12-08T04:16:10.757Z,19.15
2023-12-08T04:18:37.557Z,20.50
2023-12-08T04:21:04.159Z,19.20
2023-12-08T04:23:30.603Z,21.13
2023-12-08T04:25:58.831Z,21.73
2023-12-08T04:28:25.954Z,20.38
2023-12-08T04:30:52.482Z,19.95
2023-12-08T04:33:19.036Z,23.23
2023-12-08T04:35:45.676Z,22.88
2023-12-08T04:38:12.274Z,23.90
2023-12-08T04:40:38.668Z,23.08
2023-12-08T04:43:05.227Z,23.50
2023-12-08T04:45:31.883Z,23.85
2023-12-08T04:47:59.383Z,23.08
2023-12-08T04:50:26.320Z,22.85
2023-12-08T04:52:52.904Z,24.08
2023-12-08T04:55:19.507Z,23.77
2023-12-08T04:57:45.962Z,24.15
2023-12-08T05:00:15.719Z,24.50
2023-12-08T05:02:42.287Z,24.30
2023-12-08T05:05:15.002Z,23.60
2023-12-08T05:07:43.220Z,24.92
2023-12-08T05:10:09.980Z,22.65
2023-12-08T05:12:38.298Z,24.25
2023-12-08T05:15:05.406Z,24.38
2023-12-08T05:17:32.095Z,22.65
2023-12-08T05:19:58.638Z,23.00
2023-12-08T05:22:25.074Z,21.98
2023-12-08T05:24:51.591Z,22.70
2023-12-08T05:27:21.649Z,21.67
2023-12-08T05:29:48.187Z,23.20
2023-12-08T05:32:14.731Z,21.95
2023-12-08T05:34:41.307Z,23.17
2023-12-08T05:37:07.819Z,22.42
2023-12-08T05:39:36.791Z,22.45
2023-12-08T05:42:04.090Z,22.75
2023-12-08T05:44:30.738Z,22.52
2023-12-08T05:46:58.542Z,22.88
2023-12-08T05:49:25.895Z,23.38
2023-12-08T05:51:54.973Z,24.77
2023-12-08T05:54:21.687Z,23.42
2023-12-08T05:56:49.368Z,23.23
2023-12-08T05:59:15.789Z,23.65
2023-12-08T06:01:44.616Z,23.27
2023-12-08T06:04:11.210Z,25.05
2023-12-08T06:06:39.189Z,24.10
2023-12-08T06:09:08.496Z,23.52
2023-12-08T06:11:35.012Z,23.63
2023-12-08T06:14:01.747Z,24.30
2023-12-08T06:16:28.808Z,23.33
2023-12-08T06:18:57.237Z,23.98
2023-12-08T06:21:23.947Z,23.63
2023-12-08T06:23:50.400Z,23.58
2023-12-08T06:26:19.889Z,23.27
2023-12-08T06:28:46.382Z,22.08
2023-12-08T06:31:13.312Z,24.42
2023-12-08T06:33:40.188Z,23.55
2023-12-08T06:36:09.488Z,23.95
2023-12-08T06:38:45.461Z,23.60
2023-12-08T06:41:12.740Z,22.67
2023-12-08T06:43:39.237Z,23.38
2023-12-08T06:46:05.780Z,23.40
2023-12-08T06:48:32.662Z,23.67
2023-12-08T06:50:59.299Z,22.50
2023-12-08T06:53:25.981Z,23.02
2023-12-08T06:55:52.514Z,24.80
2023-12-08T06:58:19.020Z,24.30
2023-12-08T07:00:45.578Z,24.73
2023-12-08T07:03:13.990Z,24.60
2023-12-08T07:05:42.974Z,24.40
2023-12-08T07:08:09.501Z,25.30
2023-12-08T07:10:36.103Z,24.17
2023-12-08T07:13:02.630Z,24.95
2023-12-08T07:15:29.391Z,26.02
2023-12-08T07:17:56.605Z,26.80
2023-12-08T07:20:23.314Z,25.52
2023-12-08T07:22:49.986Z,26.73
2023-12-08T07:25:16.770Z,26.10
2023-12-08T07:27:43.840Z,27.30
2023-12-08T07:30:11.514Z,26.83
2023-12-08T07:32:40.384Z,26.45
2023-12-08T07:35:07.800Z,26.50
2023-12-08T07:37:34.516Z,25.85
2023-12-08T07:40:03.365Z,28.10
2023-12-08T07:42:32.322Z,26.00
2023-12-08T07:45:01.834Z,26.00
2023-12-08T07:47:28.743Z,27.30
2023-12-08T07:49:58.316Z,26.85
2023-12-08T07:52:27.981Z,26.88
2023-12-08T07:54:55.226Z,26.23
2023-12-08T07:57:21.773Z,26.55
2023-12-08T07:59:49.251Z,25.48
2023-12-08T08:02:16.010Z,25.67
2023-12-08T08:04:49.845Z,27.05
2023-12-08T08:07:19.070Z,28.02
2023-12-08T08:09:45.537Z,27.17
2023-12-08T08:12:13.307Z,28.02
2023-12-08T08:14:40.057Z,27.17
2023-12-08T08:17:09.358Z,28.10
2023-12-08T08:19:41.646Z,28.30
2023-12-08T08:22:28.964Z,28.60
2023-12-08T08:24:55.352Z,26.75
2023-12-08T08:27:22.945Z,29.80
2023-12-08T08:29:49.639Z,27.33
2023-12-08T08:32:18.278Z,28.30
2023-12-08T08:34:45.900Z,29.40
2023-12-08T08:37:12.830Z,28.67
2023-12-08T08:39:39.434Z,30.23
2023-12-08T08:42:06.221Z,29.35
2023-12-08T08:44:32.726Z,31.73
2023-12-08T08:46:59.199Z,31.15
2023-12-08T08:49:25.824Z,32.50
2023-12-08T08:51:52.410Z,33.13
2023-12-08T08:54:18.986Z,33.80
2023-12-08T08:56:45.467Z,32.80
2023-12-08T08:59:12.049Z,33.78
2023-12-08T09:01:39.577Z,33.88
2023-12-08T09:04:06.090Z,35.33
2023-12-08T09:06:32.653Z,34.00
2023-12-08T09:08:59.313Z,36.45
2023-12-08T09:11:25.748Z,36.45
2023-12-08T09:13:52.296Z,37.25
2023-12-08T09:16:18.846Z,37.20
2023-12-08T09:18:45.444Z,37.92
2023-12-08T09:21:11.928Z,37.78
2023-12-08T09:23:38.467Z,37.90
2023-12-08T09:26:05.154Z,36.38
2023-12-08T09:28:31.650Z,37.25
2023-12-08T09:30:58.727Z,36.42
2023-12-08T09:33:29.009Z,39.13
2023-12-08T09:35:56.731Z,38.45
2023-12-08T09:38:31.280Z,38.63
2023-12-08T09:41:02.235Z,36.88
2023-12-08T09:43:42.610Z,36.47
2023-12-08T09:46:09.928Z,35.88
2023-12-08T09:48:39.161Z,37.22
2023-12-08T09:51:08.495Z,36.35
2023-12-08T09:53:36.396Z,35.90
2023-12-08T09:56:03.396Z,37.53
2023-12-08T09:58:31.089Z,37.50
2023-12-08T10:00:59.434Z,37.55
2023-12-08T10:03:27.386Z,39.28
2023-12-08T10:05:56.211Z,38.58
2023-12-08T10:08:25.510Z,38.67
2023-12-08T10:10:52.413Z,37.55
2023-12-08T10:13:19.470Z,39.80
2023-12-08T10:15:46.010Z,39.67
2023-12-08T10:18:27.011Z,40.75
2023-12-08T10:21:13.595Z,35.42
2023-12-08T10:23:45.140Z,36.20
2023-12-08T10:26:13.650Z,36.28
2023-12-08T10:28:40.969Z,36.08
2023-12-08T10:31:07.620Z,37.83
2023-12-08T10:33:34.453Z,40.50
2023-12-08T10:36:01.539Z,38.92
2023-12-08T10:38:28.141Z,38.35
2023-12-08T10:40:54.808Z,41.47
2023-12-08T10:43:26.592Z,39.47
2023-12-08T10:45:53.901Z,42.55
2023-12-08T10:48:21.882Z,43.30
2023-12-08T10:50:50.166Z,47.08
2023-12-08T10:53:21.153Z,55.05
2023-12-08T10:56:01.675Z,59.17
2023-12-08T10:58:29.662Z,60.05
2023-12-08T11:00:57.294Z,62.53
2023-12-08T11:03:25.244Z,69.90
2023-12-08T11:06:10.991Z,74.00
2023-12-08T11:08:44.375Z,71.50
2023-12-08T11:11:12.116Z,82.07
2023-12-08T11:13:45.173Z,89.00
2023-12-08T11:16:36.340Z,89.90
2023-12-08T11:19:04.214Z,80.28
2023-12-08T11:21:30.977Z,87.35
2023-12-08T11:23:58.085Z,105.65
2023-12-08T11:26:36.374Z,109.45
2023-12-08T11:29:31.334Z,107.70
2023-12-08T11:32:05.353Z,96.90
2023-12-08T11:37:03.407Z,60.95
2023-12-08T11:39:45.020Z,101.43
2023-12-08T11:42:13.612Z,113.28
2023-12-08T11:44:44.332Z,161.90
2023-12-08T11:47:18.199Z,155.70
2023-12-08T11:49:48.241Z,128.60
2023-12-08T11:52:14.695Z,143.95
2023-12-08T11:57:30.903Z,125.43
2023-12-08T11:59:58.064Z,145.98
2023-12-08T12:02:24.590Z,171.98
2023-12-08T12:04:51.239Z,178.27
2023-12-08T12:07:20.918Z,178.77
2023-12-08T12:09:53.686Z,184.02
2023-12-08T12:12:33.770Z,252.40
2023-12-08T12:15:07.601Z,222.00
2023-12-08T12:17:37.872Z,255.75
2023-12-08T12:20:09.241Z,257.60
2023-12-08T12:22:38.011Z,237.82
2023-12-08T12:25:07.355Z,230.13
2023-12-08T12:27:43.892Z,248.85
2023-12-08T12:30:11.558Z,218.43
2023-12-08T12:32:39.564Z,267.00
2023-12-08T12:35:07.420Z,277.05
2023-12-08T12:37:35.037Z,265.75
2023-12-08T12:40:01.962Z,242.73
2023-12-08T12:42:28.538Z,253.80
2023-12-08T12:44:58.907Z,280.30
2023-12-08T12:47:27.039Z,248.15
2023-12-08T12:50:17.398Z,234.40
2023-12-08T12:52:46.795Z,153.23
2023-12-08T12:55:26.034Z,163.00
2023-12-08T12:58:00.492Z,138.73
2023-12-08T13:00:39.204Z,149.27
2023-12-08T13:03:16.769Z,156.52
2023-12-08T13:05:49.445Z,171.48
2023-12-08T13:08:18.073Z,171.60
2023-12-08T13:10:46.240Z,182.45
2023-12-08T13:13:15.740Z,174.35
2023-12-08T13:15:43.458Z,174.52
2023-12-08T13:18:10.431Z,179.73
2023-12-08T13:20:41.074Z,172.25
2023-12-08T13:23:08.076Z,148.90
2023-12-08T13:25:35.823Z,157.85
2023-12-08T13:28:02.401Z,146.88
2023-12-08T13:30:31.502Z,127.78
2023-12-08T13:32:58.490Z,104.88
2023-12-08T13:35:25.246Z,87.88
2023-12-08T13:37:59.920Z,84.03
2023-12-08T13:40:30.484Z,84.70
2023-12-08T13:43:00.694Z,81.60
2023-12-08T13:45:28.795Z,89.43
2023-12-08T13:47:55.578Z,103.55
2023-12-08T13:50:25.202Z,96.70
2023-12-08T13:52:51.712Z,92.03
2023-12-08T13:55:18.687Z,100.13
2023-12-08T13:57:45.178Z,110.15
2023-12-08T14:00:12.430Z,118.07
2023-12-08T14:02:38.945Z,110.65
2023-12-08T14:05:05.747Z,117.63
2023-12-08T14:07:32.390Z,123.22
2023-12-08T14:09:59.362Z,108.30
2023-12-08T14:12:25.852Z,97.60
2023-12-08T14:14:52.658Z,109.90
2023-12-08T14:17:19.268Z,104.22
2023-12-08T14:19:45.723Z,103.68
2023-12-08T14:22:12.181Z,102.95
2023-12-08T14:24:38.755Z,117.88
2023-12-08T14:27:05.450Z,125.65
2023-12-08T14:29:31.973Z,122.93
2023-12-08T14:31:58.394Z,132.57
2023-12-08T14:34:25.126Z,132.38
2023-12-08T14:36:51.725Z,151.18
2023-12-08T14:39:18.938Z,177.32
2023-12-08T14:41:45.507Z,159.32
2023-12-08T14:44:12.070Z,158.57
2023-12-08T14:46:38.533Z,165.90
2023-12-08T14:49:05.937Z,165.15
2023-12-08T14:51:32.650Z,162.02
2023-12-08T14:53:59.155Z,142.63
2023-12-08T14:56:26.939Z,123.95
2023-12-08T14:58:53.483Z,127.20
2023-12-08T15:01:21.560Z,123.38
2023-12-08T15:03:51.230Z,131.68
2023-12-08T15:06:20.516Z,137.70
2023-12-08T15:08:50.762Z,121.18
2023-12-08T15:11:17.540Z,137.02
2023-12-08T15:13:48.821Z,113.65
2023-12-08T15:16:15.457Z,104.25
2023-12-08T15:18:42.468Z,102.65
2023-12-08T15:21:09.270Z,111.13
2023-12-08T15:23:40.282Z,107.57
2023-12-08T15:26:06.884Z,106.82
2023-12-08T15:28:33.337Z,95.43
2023-12-08T15:30:59.835Z,93.53
2023-12-08T15:33:27.976Z,92.53
2023-12-08T15:35:54.615Z,92.40
2023-12-08T15:38:22.301Z,90.13
2023-12-08T15:40:48.766Z,88.10
2023-12-08T15:43:18.492Z,85.57
2023-12-08T15:45:45.564Z,91.88
2023-12-08T15:48:12.299Z,98.60
2023-12-08T15:50:38.870Z,106.35
2023-12-08T15:53:08.183Z,107.88
2023-12-08T15:55:35.267Z,121.60
2023-12-08T15:58:04.842Z,113.82
2023-12-08T16:00:33.940Z,102.25
2023-12-08T16:03:01.979Z,109.03
2023-12-08T16:05:28.917Z,107.60
2023-12-08T16:07:55.450Z,107.82
2023-12-08T16:10:24.270Z,108.97
2023-12-08T16:12:53.285Z,99.50
2023-12-08T16:15:19.837Z,93.90
2023-12-08T16:17:46.585Z,93.53
2023-12-08T16:20:13.309Z,91.18
2023-12-08T16:22:41.151Z,89.63
2023-12-08T16:25:09.615Z,83.13
2023-12-08T16:27:36.150Z,79.03
2023-12-08T16:37:26.200Z,48.25
2023-12-08T16:39:54.029Z,52.65
2023-12-08T16:42:20.886Z,58.55
2023-12-08T16:44:51.937Z,55.75
2023-12-08T16:52:35.234Z,81.32
2023-12-08T16:55:01.924Z,86.35
2023-12-08T16:57:28.470Z,95.45
2023-12-08T16:59:54.901Z,133.90
2023-12-08T17:02:21.274Z,106.70
2023-12-08T17:04:47.741Z,112.15
2023-12-08T17:07:14.268Z,109.93
2023-12-08T17:09:40.708Z,97.85
2023-12-08T17:12:08.291Z,111.75
2023-12-08T17:14:34.858Z,99.28
2023-12-08T17:17:01.268Z,91.47
2023-12-08T17:19:27.658Z,89.25
2023-12-08T17:21:54.068Z,90.20
2023-12-08T17:24:21.694Z,92.40
2023-12-08T17:26:53.190Z,97.70
2023-12-08T17:29:19.569Z,90.57
2023-12-08T17:31:45.948Z,93.15
2023-12-08T17:34:19.051Z,86.28
2023-12-08T17:36:49.147Z,82.25
2023-12-08T17:39:17.574Z,82.45
2023-12-08T17:41:44.255Z,91.78
2023-12-08T17:44:10.626Z,96.38
2023-12-08T17:46:40.484Z,90.78
2023-12-08T17:49:07.081Z,86.68
2023-12-08T17:51:33.797Z,91.72
2023-12-08T17:54:00.752Z,92.38
2023-12-08T17:56:27.180Z,99.47
2023-12-08T17:58:53.547Z,96.65
2023-12-08T18:01:20.117Z,94.10
2023-12-08T18:03:46.589Z,83.22
2023-12-08T18:06:17.240Z,83.57
2023-12-08T18:08:43.841Z,83.97
2023-12-08T18:11:26.539Z,93.78
2023-12-08T18:13:54.538Z,81.85
2023-12-08T18:16:28.513Z,87.07
2023-12-08T18:18:56.798Z,82.75
2023-12-08T18:21:27.421Z,81.72
2023-12-08T18:23:54.684Z,81.43
2023-12-08T18:26:21.695Z,76.35
2023-12-08T18:31:28.279Z,76.13
2023-12-08T18:33:56.648Z,68.57
2023-12-08T18:36:26.822Z,76.65
2023-12-08T18:38:55.642Z,66.22
2023-12-08T18:41:22.036Z,73.75
2023-12-08T18:43:48.988Z,70.50
2023-12-08T18:46:15.983Z,63.05
2023-12-08T18:48:43.944Z,59.47
2023-12-08T18:51:11.893Z,53.88
2023-12-08T18:53:38.711Z,51.40
2023-12-08T18:56:05.618Z,48.78
2023-12-08T18:58:32.878Z,49.63
2023-12-08T19:00:59.412Z,48.70
2023-12-08T19:03:26.100Z,43.35
2023-12-08T19:05:52.594Z,41.50
2023-12-08T19:08:19.076Z,39.75
2023-12-08T19:10:46.768Z,40.58
2023-12-08T19:13:13.180Z,37.88
2023-12-08T19:15:39.546Z,39.20
2023-12-08T19:18:06.056Z,41.13
2023-12-08T19:20:32.617Z,42.78
2023-12-08T19:22:59.889Z,41.08
2023-12-08T19:25:26.306Z,40.15
2023-12-08T19:27:52.688Z,41.08
2023-12-08T19:30:19.170Z,42.08
2023-12-08T19:32:45.687Z,41.13
2023-12-08T19:35:12.424Z,40.80
2023-12-08T19:37:38.906Z,42.17
2023-12-08T19:40:05.992Z,38.17
2023-12-08T19:42:33.264Z,42.03
2023-12-08T19:44:59.905Z,38.38
2023-12-08T19:47:27.346Z,37.33
2023-12-08T19:49:54.040Z,35.60
2023-12-08T19:52:21.504Z,34.15
2023-12-08T19:54:47.882Z,35.08
2023-12-08T19:57:16.008Z,33.97
2023-12-08T19:59:43.086Z,32.28
2023-12-08T20:02:09.824Z,33.83
2023-12-08T20:04:36.241Z,34.42
2023-12-08T20:07:02.841Z,33.83
2023-12-08T20:09:29.331Z,32.08
2023-12-08T20:11:55.741Z,32.45
2023-12-08T20:14:22.153Z,32.75
2023-12-08T20:16:48.816Z,31.67
2023-12-08T20:19:15.231Z,29.75
2023-12-08T20:21:41.760Z,32.55
2023-12-08T20:24:16.162Z,30.95
2023-12-08T20:26:43.335Z,29.58
2023-12-08T20:29:09.804Z,29.48
2023-12-08T20:31:36.240Z,29.90
2023-12-08T20:34:02.772Z,28.75
2023-12-08T20:36:29.455Z,29.00
2023-12-08T20:38:55.933Z,29.38
2023-12-08T20:41:23.322Z,29.50
2023-12-08T20:43:50.936Z,30.52
2023-12-08T20:46:17.409Z,30.10
2023-12-08T20:48:43.924Z,33.13
2023-12-08T20:51:10.488Z,29.02
2023-12-08T20:53:36.945Z,30.83
2023-12-08T20:56:13.205Z,28.92
2023-12-08T20:58:40.565Z,29.80
2023-12-08T21:01:07.506Z,28.98
2023-12-08T21:03:34.096Z,28.92
2023-12-08T21:06:00.571Z,29.45
2023-12-08T21:08:27.050Z,29.92
2023-12-08T21:10:53.446Z,29.83
2023-12-08T21:13:21.406Z,29.08
2023-12-08T21:15:49.857Z,29.98
2023-12-08T21:18:16.418Z,29.10
2023-12-08T21:20:42.884Z,30.70
2023-12-08T21:23:09.421Z,31.23
2023-12-08T21:25:35.792Z,28.67
2023-12-08T21:28:02.395Z,29.17
2023-12-08T21:30:28.892Z,29.23
2023-12-08T21:32:55.576Z,29.25
2023-12-08T21:35:22.122Z,28.25
2023-12-08T21:37:49.021Z,28.67
2023-12-08T21:40:17.913Z,29.40
2023-12-08T21:42:49.934Z,28.00
2023-12-08T21:45:17.403Z,28.77
2023-12-08T21:47:44.869Z,28.08
2023-12-08T21:50:11.604Z,28.48
2023-12-08T21:52:37.968Z,27.90
2023-12-08T21:55:04.959Z,27.23
2023-12-08T21:57:31.597Z,26.05
2023-12-08T21:59:58.122Z,25.80
2023-12-08T22:02:24.547Z,29.55
2023-12-08T22:04:51.033Z,27.85
2023-12-08T22:07:17.493Z,26.58
2023-12-08T22:09:50.879Z,28.23
2023-12-08T22:12:18.435Z,27.63
2023-12-08T22:14:44.928Z,24.55
2023-12-08T22:17:11.381Z,25.83
2023-12-08T22:19:37.938Z,26.13
2023-12-08T22:22:04.478Z,25.38
2023-12-08T22:24:32.098Z,24.00
2023-12-08T22:26:58.974Z,25.98
2023-12-08T22:29:25.852Z,24.70
2023-12-08T22:31:56.030Z,25.10
2023-12-08T22:34:23.655Z,24.08
2023-12-08T22:36:50.279Z,25.65
2023-12-08T22:39:16.749Z,25.98
2023-12-08T22:41:43.182Z,24.60
2023-12-08T22:44:09.539Z,25.42
2023-12-08T22:46:35.919Z,26.48
2023-12-08T22:49:02.411Z,24.48
2023-12-08T22:51:38.458Z,27.08
2023-12-08T22:54:14.814Z,24.73
2023-12-08T22:56:43.788Z,25.88
2023-12-08T22:59:10.212Z,25.52
2023-12-08T23:01:36.616Z,24.88
2023-12-08T23:04:03.136Z,25.75
2023-12-08T23:06:29.775Z,26.92
2023-12-08T23:08:56.208Z,28.58
2023-12-08T23:11:22.822Z,31.45
2023-12-08T23:13:49.363Z,31.65
2023-12-08T23:16:16.109Z,33.63
2023-12-08T23:18:42.818Z,35.42
2023-12-08T23:21:09.286Z,32.63
2023-12-08T23:23:35.743Z,32.88
2023-12-08T23:26:03.431Z,35.47
2023-12-08T23:28:29.942Z,34.15
2023-12-08T23:31:02.287Z,34.28
2023-12-08T23:33:30.145Z,32.63
2023-12-08T23:35:56.786Z,33.28
2023-12-08T23:38:23.246Z,33.25
2023-12-08T23:40:49.750Z,33.00
2023-12-08T23:43:16.123Z,32.55
2023-12-08T23:45:42.516Z,29.48
2023-12-08T23:48:09.036Z,30.70
2023-12-08T23:50:35.489Z,30.13
2023-12-08T23:53:01.899Z,27.98
2023-12-08T23:55:28.273Z,25.73
2023-12-08T23:57:54.702Z,26.45
